createdAt,value
2023-01-11T00:00:06.709Z,8.60
2023-01-11T00:00:16.720Z,8.70
2023-01-11T00:00:26.701Z,8.70
2023-01-11T00:00:36.718Z,8.50
2023-01-11T00:00:46.792Z,8.00
2023-01-11T00:00:56.702Z,8.00
2023-01-11T00:01:07.423Z,7.10
2023-01-11T00:01:16.849Z,7.60
2023-01-11T00:01:26.692Z,8.10
2023-01-11T00:01:36.722Z,8.80
2023-01-11T00:01:46.702Z,8.90
2023-01-11T00:01:56.772Z,8.30
2023-01-11T00:02:06.758Z,8.30
2023-01-11T00:02:16.732Z,8.00
2023-01-11T00:02:26.866Z,7.90
2023-01-11T00:02:36.756Z,7.30
2023-01-11T00:02:46.738Z,7.80
2023-01-11T00:02:56.701Z,8.10
2023-01-11T00:03:06.744Z,8.60
2023-01-11T00:03:16.685Z,8.20
2023-01-11T00:03:26.703Z,7.90
2023-01-11T00:03:37.432Z,8.00
2023-01-11T00:03:47.435Z,8.10
2023-01-11T00:03:56.842Z,7.80
2023-01-11T00:04:06.681Z,7.30
2023-01-11T00:04:16.735Z,7.20
2023-01-11T00:04:26.695Z,7.90
2023-01-11T00:04:36.770Z,8.00
2023-01-11T00:04:46.749Z,7.50
2023-01-11T00:04:56.774Z,6.70
2023-01-11T00:05:06.747Z,6.70
2023-01-11T00:05:16.705Z,7.30
2023-01-11T00:05:26.681Z,8.10
2023-01-11T00:05:36.679Z,8.50
2023-01-11T00:05:46.688Z,8.30
2023-01-11T00:05:56.708Z,7.50
2023-01-11T00:06:06.673Z,7.30
2023-01-11T00:06:16.689Z,7.10
2023-01-11T00:06:26.770Z,7.20
2023-01-11T00:06:36.709Z,7.20
2023-01-11T00:06:46.791Z,7.40
2023-01-11T00:06:56.754Z,7.50
2023-01-11T00:07:06.673Z,7.60
2023-01-11T00:07:16.668Z,7.40
2023-01-11T00:07:26.668Z,7.60
2023-01-11T00:07:36.664Z,7.40
2023-01-11T00:07:47.521Z,7.60
2023-01-11T00:07:56.727Z,7.20
2023-01-11T00:08:06.706Z,7.20
2023-01-11T00:08:16.747Z,7.40
2023-01-11T00:08:26.709Z,7.20
2023-01-11T00:08:36.679Z,7.30
2023-01-11T00:08:46.683Z,7.10
2023-01-11T00:08:56.673Z,7.30
2023-01-11T00:09:06.678Z,7.60
2023-01-11T00:09:16.681Z,7.80
2023-01-11T00:09:26.673Z,8.00
2023-01-11T00:09:36.674Z,7.80
2023-01-11T00:09:46.682Z,7.70
2023-01-11T00:09:56.689Z,7.20
2023-01-11T00:10:06.679Z,7.20
2023-01-11T00:10:16.718Z,6.80
2023-01-11T00:10:26.660Z,6.80
2023-01-11T00:10:36.665Z,6.50
2023-01-11T00:10:46.686Z,6.70
2023-01-11T00:10:56.733Z,7.00
2023-01-11T00:11:06.671Z,7.60
2023-01-11T00:11:16.671Z,7.60
2023-01-11T00:11:26.650Z,7.50
2023-01-11T00:11:36.675Z,7.60
2023-01-11T00:11:46.659Z,8.00
2023-01-11T00:11:56.660Z,8.20
2023-01-11T00:12:06.664Z,7.70
2023-01-11T00:12:16.675Z,7.00
2023-01-11T00:12:26.656Z,7.10
2023-01-11T00:12:36.718Z,8.00
2023-01-11T00:12:46.644Z,7.80
2023-01-11T00:12:56.667Z,7.50
2023-01-11T00:13:06.676Z,7.00
2023-01-11T00:13:16.649Z,7.30
2023-01-11T00:13:26.653Z,7.10
2023-01-11T00:13:36.641Z,7.00
2023-01-11T00:13:46.649Z,6.90
2023-01-11T00:13:56.674Z,6.90
2023-01-11T00:14:06.694Z,6.60
2023-01-11T00:14:16.641Z,6.70
2023-01-11T00:14:26.651Z,6.80
2023-01-11T00:14:36.640Z,6.90
2023-01-11T00:14:46.640Z,6.80
2023-01-11T00:14:56.652Z,6.60
2023-01-11T00:15:06.690Z,6.50
2023-01-11T00:15:16.674Z,6.20
2023-01-11T00:15:26.680Z,6.20
2023-01-11T00:15:36.627Z,6.10
2023-01-11T00:15:46.707Z,6.60
2023-01-11T00:15:56.680Z,6.70
2023-01-11T00:16:06.707Z,6.90
2023-01-11T00:16:16.726Z,6.70
2023-01-11T00:16:26.723Z,7.00
2023-01-11T00:16:36.635Z,7.70
2023-01-11T00:16:46.652Z,7.50
2023-01-11T00:16:56.665Z,7.30
2023-01-11T00:17:06.630Z,6.80
2023-01-11T00:17:16.634Z,7.40
2023-01-11T00:17:26.642Z,7.30
2023-01-11T00:17:36.631Z,7.50
2023-01-11T00:17:46.654Z,7.20
2023-01-11T00:17:56.627Z,6.90
2023-01-11T00:18:06.633Z,6.30
2023-01-11T00:18:16.640Z,5.90
2023-01-11T00:18:27.439Z,6.10
2023-01-11T00:18:36.637Z,6.30
2023-01-11T00:18:46.662Z,6.00
2023-01-11T00:18:56.677Z,6.20
2023-01-11T00:19:06.660Z,5.90
2023-01-11T00:19:16.670Z,6.50
2023-01-11T00:19:26.692Z,6.40
2023-01-11T00:19:36.623Z,6.70
2023-01-11T00:19:46.621Z,6.50
2023-01-11T00:19:56.616Z,6.40
2023-01-11T00:20:06.638Z,6.20
2023-01-11T00:20:16.650Z,6.20
2023-01-11T00:20:26.621Z,6.30
2023-01-11T00:20:36.843Z,6.20
2023-01-11T00:20:46.608Z,6.50
2023-01-11T00:20:56.616Z,6.70
2023-01-11T00:21:06.656Z,7.40
2023-01-11T00:21:16.612Z,7.30
2023-01-11T00:21:26.631Z,7.30
2023-01-11T00:21:36.627Z,6.90
2023-01-11T00:21:46.629Z,6.70
2023-01-11T00:21:57.454Z,6.50
2023-01-11T00:22:06.605Z,6.40
2023-01-11T00:22:16.686Z,7.30
2023-01-11T00:22:26.716Z,8.20
2023-01-11T00:22:36.746Z,8.10
2023-01-11T00:22:46.612Z,7.40
2023-01-11T00:22:56.640Z,6.50
2023-01-11T00:23:06.601Z,6.50
2023-01-11T00:23:16.625Z,6.20
2023-01-11T00:23:26.706Z,6.50
2023-01-11T00:23:36.611Z,6.60
2023-01-11T00:23:46.611Z,6.60
2023-01-11T00:23:56.630Z,6.10
2023-01-11T00:24:06.622Z,5.80
2023-01-11T00:24:16.596Z,5.60
2023-01-11T00:24:26.608Z,5.40
2023-01-11T00:24:36.590Z,6.20
2023-01-11T00:24:46.645Z,6.60
2023-01-11T00:24:56.645Z,7.10
2023-01-11T00:25:06.591Z,6.30
2023-01-11T00:25:16.605Z,6.20
2023-01-11T00:25:26.598Z,5.80
2023-01-11T00:25:36.602Z,5.90
2023-01-11T00:25:46.641Z,6.80
2023-01-11T00:25:56.679Z,6.90
2023-01-11T00:26:06.588Z,6.80
2023-01-11T00:26:16.635Z,5.70
2023-01-11T00:26:26.583Z,5.60
2023-01-11T00:26:36.620Z,5.50
2023-01-11T00:26:46.623Z,5.50
2023-01-11T00:26:56.591Z,6.70
2023-01-11T00:27:06.583Z,7.00
2023-01-11T00:27:16.619Z,7.80
2023-01-11T00:27:27.600Z,6.70
2023-01-11T00:27:36.597Z,6.60
2023-01-11T00:27:46.596Z,6.30
2023-01-11T00:27:57.435Z,6.70
2023-01-11T00:28:06.617Z,6.70
2023-01-11T00:28:16.700Z,6.60
2023-01-11T00:28:26.580Z,6.60
2023-01-11T00:28:36.580Z,6.90
2023-01-11T00:28:46.575Z,6.60
2023-01-11T00:28:56.588Z,6.80
2023-01-11T00:29:06.649Z,7.40
2023-01-11T00:29:16.572Z,7.90
2023-01-11T00:29:26.574Z,7.20
2023-01-11T00:29:36.617Z,6.30
2023-01-11T00:29:46.571Z,6.00
2023-01-11T00:29:56.594Z,6.00
2023-01-11T00:30:06.606Z,6.90
2023-01-11T00:30:16.596Z,6.90
2023-01-11T00:30:26.599Z,7.20
2023-01-11T00:30:36.601Z,6.50
2023-01-11T00:30:46.575Z,6.20
2023-01-11T00:30:56.646Z,6.00
2023-01-11T00:31:06.583Z,5.40
2023-01-11T00:31:16.578Z,5.50
2023-01-11T00:31:26.663Z,6.10
2023-01-11T00:31:36.662Z,6.60
2023-01-11T00:31:46.575Z,6.70
2023-01-11T00:31:56.575Z,6.10
2023-01-11T00:32:06.593Z,6.10
2023-01-11T00:32:16.570Z,6.10
2023-01-11T00:32:26.615Z,6.30
2023-01-11T00:32:36.561Z,6.20
2023-01-11T00:32:46.561Z,6.20
2023-01-11T00:32:56.597Z,6.10
2023-01-11T00:33:06.559Z,6.00
2023-01-11T00:33:16.605Z,6.60
2023-01-11T00:33:26.568Z,6.10
2023-01-11T00:33:36.612Z,6.40
2023-01-11T00:33:46.575Z,5.70
2023-01-11T00:33:56.591Z,6.70
2023-01-11T00:34:06.564Z,6.70
2023-01-11T00:34:16.580Z,6.70
2023-01-11T00:34:26.600Z,6.40
2023-01-11T00:34:36.582Z,6.60
2023-01-11T00:34:46.567Z,7.00
2023-01-11T00:34:56.557Z,6.80
2023-01-11T00:35:06.558Z,6.20
2023-01-11T00:35:16.595Z,6.10
2023-01-11T00:35:26.550Z,6.30
2023-01-11T00:35:36.551Z,6.60
2023-01-11T00:35:46.561Z,6.70
2023-01-11T00:35:56.545Z,6.30
2023-01-11T00:36:06.660Z,6.00
2023-01-11T00:36:16.575Z,5.60
2023-01-11T00:36:26.546Z,5.50
2023-01-11T00:36:36.541Z,5.90
2023-01-11T00:36:46.577Z,6.60
2023-01-11T00:36:56.551Z,6.60
2023-01-11T00:37:06.549Z,6.60
2023-01-11T00:37:16.552Z,6.30
2023-01-11T00:37:26.637Z,6.80
2023-01-11T00:37:36.567Z,6.40
2023-01-11T00:37:46.537Z,6.00
2023-01-11T00:37:56.538Z,5.80
2023-01-11T00:38:06.557Z,5.90
2023-01-11T00:38:16.535Z,6.20
2023-01-11T00:38:26.563Z,6.20
2023-01-11T00:38:36.558Z,6.20
2023-01-11T00:38:46.718Z,6.10
2023-01-11T00:38:56.559Z,5.50
2023-01-11T00:39:06.550Z,5.40
2023-01-11T00:39:16.537Z,5.70
2023-01-11T00:39:26.547Z,6.30
2023-01-11T00:39:36.558Z,6.70
2023-01-11T00:39:46.543Z,6.70
2023-01-11T00:39:57.446Z,6.30
2023-01-11T00:40:06.570Z,6.00
2023-01-11T00:40:16.567Z,6.10
2023-01-11T00:40:26.574Z,6.60
2023-01-11T00:40:36.533Z,6.40
2023-01-11T00:40:46.522Z,6.60
2023-01-11T00:40:56.538Z,6.70
2023-01-11T00:41:06.601Z,6.50
2023-01-11T00:41:16.567Z,6.00
2023-01-11T00:41:26.540Z,5.50
2023-01-11T00:41:36.537Z,5.80
2023-01-11T00:41:46.519Z,5.80
2023-01-11T00:41:56.543Z,5.80
2023-01-11T00:42:06.620Z,5.90
2023-01-11T00:42:16.525Z,5.60
2023-01-11T00:42:26.548Z,6.00
2023-01-11T00:42:36.512Z,5.70
2023-01-11T00:42:46.525Z,5.80
2023-01-11T00:42:56.562Z,5.70
2023-01-11T00:43:06.534Z,5.60
2023-01-11T00:43:16.520Z,6.30
2023-01-11T00:43:26.513Z,6.10
2023-01-11T00:43:37.556Z,7.80
2023-01-11T00:43:46.519Z,7.80
2023-01-11T00:43:56.568Z,7.90
2023-01-11T00:44:06.514Z,6.20
2023-01-11T00:44:16.524Z,5.70
2023-01-11T00:44:26.559Z,5.10
2023-01-11T00:44:36.730Z,5.10
2023-01-11T00:44:46.527Z,5.60
2023-01-11T00:44:56.578Z,6.10
2023-01-11T00:45:06.504Z,6.10
2023-01-11T00:45:16.571Z,5.90
2023-01-11T00:45:26.524Z,5.80
2023-01-11T00:45:36.519Z,5.40
2023-01-11T00:45:47.507Z,5.30
2023-01-11T00:45:56.518Z,5.30
2023-01-11T00:46:06.574Z,6.10
2023-01-11T00:46:16.529Z,6.60
2023-01-11T00:46:26.616Z,6.90
2023-01-11T00:46:37.430Z,6.40
2023-01-11T00:46:46.500Z,6.20
2023-01-11T00:46:56.508Z,6.10
2023-01-11T00:47:06.507Z,6.30
2023-01-11T00:47:16.498Z,6.00
2023-01-11T00:47:26.527Z,5.70
2023-01-11T00:47:36.526Z,5.60
2023-01-11T00:47:46.572Z,5.70
2023-01-11T00:47:56.512Z,6.00
2023-01-11T00:48:06.523Z,6.40
2023-01-11T00:48:16.564Z,6.60
2023-01-11T00:48:26.505Z,6.50
2023-01-11T00:48:37.441Z,6.20
2023-01-11T00:48:46.487Z,6.20
2023-01-11T00:48:56.495Z,6.00
2023-01-11T00:49:07.448Z,6.20
2023-01-11T00:49:16.493Z,5.80
2023-01-11T00:49:26.495Z,6.00
2023-01-11T00:49:36.519Z,5.50
2023-01-11T00:49:46.496Z,5.40
2023-01-11T00:49:56.496Z,5.30
2023-01-11T00:50:06.485Z,5.90
2023-01-11T00:50:16.496Z,6.30
2023-01-11T00:50:26.539Z,6.30
2023-01-11T00:50:36.486Z,5.70
2023-01-11T00:50:46.485Z,5.80
2023-01-11T00:50:56.531Z,6.20
2023-01-11T00:51:06.475Z,6.30
2023-01-11T00:51:16.483Z,6.60
2023-01-11T00:51:26.568Z,6.50
2023-01-11T00:51:36.537Z,6.60
2023-01-11T00:51:46.481Z,5.60
2023-01-11T00:51:56.505Z,5.40
2023-01-11T00:52:06.495Z,5.50
2023-01-11T00:52:16.488Z,5.90
2023-01-11T00:52:26.472Z,5.90
2023-01-11T00:52:36.498Z,5.80
2023-01-11T00:52:46.493Z,5.70
2023-01-11T00:52:56.474Z,5.70
2023-01-11T00:53:06.472Z,6.00
2023-01-11T00:53:16.495Z,5.80
2023-01-11T00:53:26.537Z,5.80
2023-01-11T00:53:36.499Z,5.70
2023-01-11T00:53:46.490Z,6.20
2023-01-11T00:53:56.561Z,6.00
2023-01-11T00:54:06.462Z,5.70
2023-01-11T00:54:16.525Z,5.50
2023-01-11T00:54:26.476Z,5.70
2023-01-11T00:54:36.469Z,5.90
2023-01-11T00:54:46.487Z,5.60
2023-01-11T00:54:56.568Z,5.70
2023-01-11T00:55:06.484Z,5.60
2023-01-11T00:55:16.458Z,6.10
2023-01-11T00:55:26.459Z,5.70
2023-01-11T00:55:36.527Z,6.00
2023-01-11T00:55:46.498Z,5.80
2023-01-11T00:55:56.468Z,6.00
2023-01-11T00:56:06.469Z,5.60
2023-01-11T00:56:16.501Z,6.00
2023-01-11T00:56:26.454Z,7.00
2023-01-11T00:56:36.538Z,7.00
2023-01-11T00:56:46.568Z,6.20
2023-01-11T00:56:56.479Z,5.40
2023-01-11T00:57:06.536Z,5.20
2023-01-11T00:57:16.451Z,5.20
2023-01-11T00:57:26.488Z,5.40
2023-01-11T00:57:36.483Z,5.50
2023-01-11T00:57:46.454Z,5.70
2023-01-11T00:57:57.435Z,5.30
2023-01-11T00:58:06.474Z,5.30
2023-01-11T00:58:16.454Z,5.20
2023-01-11T00:58:26.519Z,5.40
2023-01-11T00:58:36.443Z,5.40
2023-01-11T00:58:46.448Z,6.20
2023-01-11T00:58:56.570Z,5.90
2023-01-11T00:59:06.448Z,6.80
2023-01-11T00:59:16.450Z,5.90
2023-01-11T00:59:26.462Z,6.00
2023-01-11T00:59:36.439Z,5.70
2023-01-11T00:59:47.512Z,6.00
2023-01-11T00:59:56.459Z,6.50
2023-01-11T01:00:06.464Z,6.20
2023-01-11T01:00:16.458Z,6.00
2023-01-11T01:00:26.468Z,6.30
2023-01-11T01:00:36.438Z,6.20
2023-01-11T01:00:46.453Z,6.70
2023-01-11T01:00:56.454Z,6.20
2023-01-11T01:01:06.504Z,6.20
2023-01-11T01:01:16.477Z,6.00
2023-01-11T01:01:26.502Z,6.10
2023-01-11T01:01:36.547Z,5.90
2023-01-11T01:01:46.467Z,5.50
2023-01-11T01:01:56.501Z,5.40
2023-01-11T01:02:06.447Z,5.90
2023-01-11T01:02:16.590Z,6.20
2023-01-11T01:02:26.544Z,6.30
2023-01-11T01:02:36.501Z,5.80
2023-01-11T01:02:46.528Z,6.30
2023-01-11T01:02:56.483Z,5.90
2023-01-11T01:03:06.441Z,6.10
2023-01-11T01:03:16.444Z,5.70
2023-01-11T01:03:26.437Z,5.90
2023-01-11T01:03:36.444Z,6.40
2023-01-11T01:03:46.451Z,6.20
2023-01-11T01:03:56.439Z,6.50
2023-01-11T01:04:06.449Z,6.30
2023-01-11T01:04:16.450Z,6.40
2023-01-11T01:04:26.429Z,5.80
2023-01-11T01:04:42.937Z,5.30
2023-01-11T01:04:46.487Z,5.20
2023-01-11T01:04:56.438Z,5.50
2023-01-11T01:05:06.440Z,5.90
2023-01-11T01:05:16.474Z,6.10
2023-01-11T01:05:26.428Z,6.40
2023-01-11T01:05:36.441Z,6.50
2023-01-11T01:05:46.470Z,6.20
2023-01-11T01:05:56.514Z,5.60
2023-01-11T01:06:06.447Z,4.60
2023-01-11T01:06:16.416Z,4.80
2023-01-11T01:06:26.437Z,4.80
2023-01-11T01:06:36.466Z,5.60
2023-01-11T01:06:46.451Z,5.80
2023-01-11T01:06:56.509Z,6.00
2023-01-11T01:07:07.015Z,5.80
2023-01-11T01:07:16.430Z,5.60
2023-01-11T01:07:26.418Z,6.40
2023-01-11T01:07:36.453Z,6.50
2023-01-11T01:07:46.406Z,6.70
2023-01-11T01:07:56.411Z,5.70
2023-01-11T01:08:06.567Z,5.40
2023-01-11T01:08:16.410Z,5.80
2023-01-11T01:08:26.461Z,6.00
2023-01-11T01:08:36.407Z,6.00
2023-01-11T01:08:46.956Z,5.30
2023-01-11T01:08:56.424Z,5.20
2023-01-11T01:09:06.423Z,5.50
2023-01-11T01:09:16.406Z,5.40
2023-01-11T01:09:26.446Z,5.30
2023-01-11T01:09:36.412Z,5.00
2023-01-11T01:09:46.416Z,5.00
2023-01-11T01:09:56.947Z,5.30
2023-01-11T01:10:06.403Z,5.70
2023-01-11T01:10:16.402Z,6.00
2023-01-11T01:10:26.423Z,5.80
2023-01-11T01:10:36.523Z,5.60
2023-01-11T01:10:46.444Z,5.60
2023-01-11T01:10:56.476Z,5.70
2023-01-11T01:11:06.391Z,5.90
2023-01-11T01:11:16.523Z,5.60
2023-01-11T01:11:26.421Z,5.90
2023-01-11T01:11:36.388Z,5.90
2023-01-11T01:11:46.407Z,6.20
2023-01-11T01:11:56.389Z,6.80
2023-01-11T01:12:06.393Z,6.90
2023-01-11T01:12:16.534Z,7.10
2023-01-11T01:12:26.395Z,6.20
2023-01-11T01:12:36.390Z,6.00
2023-01-11T01:12:46.396Z,6.00
2023-01-11T01:12:56.398Z,6.20
2023-01-11T01:13:06.409Z,5.90
2023-01-11T01:13:16.409Z,5.50
2023-01-11T01:13:26.384Z,5.40
2023-01-11T01:13:36.478Z,5.60
2023-01-11T01:13:46.453Z,5.40
2023-01-11T01:13:56.966Z,5.50
2023-01-11T01:14:06.396Z,5.70
2023-01-11T01:14:16.377Z,6.00
2023-01-11T01:14:26.523Z,5.90
2023-01-11T01:14:36.441Z,6.10
2023-01-11T01:14:46.374Z,6.40
2023-01-11T01:14:56.410Z,7.30
2023-01-11T01:15:06.400Z,6.70
2023-01-11T01:15:16.387Z,6.10
2023-01-11T01:15:26.384Z,5.70
2023-01-11T01:15:36.447Z,6.00
2023-01-11T01:15:46.390Z,5.90
2023-01-11T01:15:56.389Z,5.20
2023-01-11T01:16:06.383Z,6.00
2023-01-11T01:16:16.452Z,6.20
2023-01-11T01:16:26.406Z,6.40
2023-01-11T01:16:36.386Z,5.20
2023-01-11T01:16:46.368Z,5.70
2023-01-11T01:16:56.375Z,6.20
2023-01-11T01:17:06.404Z,6.20
2023-01-11T01:17:16.466Z,6.50
2023-01-11T01:17:26.432Z,6.00
2023-01-11T01:17:36.363Z,6.00
2023-01-11T01:17:46.391Z,5.40
2023-01-11T01:17:56.506Z,5.50
2023-01-11T01:18:06.363Z,6.10
2023-01-11T01:18:16.362Z,5.80
2023-01-11T01:18:26.388Z,5.60
2023-01-11T01:18:36.360Z,5.50
2023-01-11T01:18:46.359Z,5.70
2023-01-11T01:18:56.399Z,5.80
2023-01-11T01:19:06.367Z,5.40
2023-01-11T01:19:16.985Z,5.70
2023-01-11T01:19:26.415Z,7.00
2023-01-11T01:19:36.361Z,7.40
2023-01-11T01:19:46.372Z,7.00
2023-01-11T01:19:56.352Z,5.80
2023-01-11T01:20:06.353Z,6.00
2023-01-11T01:20:16.371Z,5.70
2023-01-11T01:20:26.388Z,6.00
2023-01-11T01:20:36.392Z,5.50
2023-01-11T01:20:46.924Z,6.10
2023-01-11T01:20:56.346Z,5.50
2023-01-11T01:21:06.365Z,5.70
2023-01-11T01:21:16.376Z,5.10
2023-01-11T01:21:26.354Z,5.00
2023-01-11T01:21:36.349Z,5.10
2023-01-11T01:21:46.387Z,5.60
2023-01-11T01:21:56.353Z,6.10
2023-01-11T01:22:06.380Z,5.80
2023-01-11T01:22:16.375Z,5.60
2023-01-11T01:22:26.350Z,5.30
2023-01-11T01:22:36.478Z,5.40
2023-01-11T01:22:46.383Z,5.30
2023-01-11T01:22:56.359Z,5.50
2023-01-11T01:23:06.350Z,5.50
2023-01-11T01:23:16.353Z,5.60
2023-01-11T01:23:26.337Z,5.40
2023-01-11T01:23:36.998Z,5.20
2023-01-11T01:23:46.346Z,5.60
2023-01-11T01:23:56.338Z,5.60
2023-01-11T01:24:06.364Z,5.80
2023-01-11T01:24:16.337Z,5.70
2023-01-11T01:24:26.355Z,6.20
2023-01-11T01:24:36.366Z,6.30
2023-01-11T01:24:46.331Z,6.00
2023-01-11T01:24:56.369Z,5.40
2023-01-11T01:25:06.343Z,5.10
2023-01-11T01:25:16.375Z,5.60
2023-01-11T01:25:26.352Z,5.60
2023-01-11T01:25:36.358Z,6.10
2023-01-11T01:25:46.339Z,5.80
2023-01-11T01:25:56.334Z,6.50
2023-01-11T01:26:06.356Z,6.30
2023-01-11T01:26:16.352Z,6.00
2023-01-11T01:26:26.352Z,5.30
2023-01-11T01:26:36.349Z,5.80
2023-01-11T01:26:46.320Z,6.10
2023-01-11T01:26:56.349Z,5.90
2023-01-11T01:27:06.396Z,5.50
2023-01-11T01:27:16.342Z,5.50
2023-01-11T01:27:26.342Z,5.90
2023-01-11T01:27:36.323Z,5.70
2023-01-11T01:27:46.429Z,5.70
2023-01-11T01:27:56.344Z,5.30
2023-01-11T01:28:06.318Z,5.30
2023-01-11T01:28:16.340Z,5.60
2023-01-11T01:28:26.336Z,5.90
2023-01-11T01:28:36.314Z,6.20
2023-01-11T01:28:46.323Z,5.80
2023-01-11T01:28:56.334Z,5.30
2023-01-11T01:29:06.327Z,5.20
2023-01-11T01:29:16.351Z,5.80
2023-01-11T01:29:26.313Z,6.30
2023-01-11T01:29:36.941Z,6.20
2023-01-11T01:29:46.314Z,5.80
2023-01-11T01:29:56.311Z,6.00
2023-01-11T01:30:06.310Z,5.70
2023-01-11T01:30:16.351Z,5.40
2023-01-11T01:30:26.318Z,5.40
2023-01-11T01:30:36.332Z,5.90
2023-01-11T01:30:46.322Z,5.90
2023-01-11T01:30:56.374Z,5.80
2023-01-11T01:31:06.455Z,5.30
2023-01-11T01:31:16.383Z,5.50
2023-01-11T01:31:26.331Z,6.00
2023-01-11T01:31:36.392Z,6.20
2023-01-11T01:31:46.321Z,6.20
2023-01-11T01:31:56.383Z,6.20
2023-01-11T01:32:06.332Z,6.30
2023-01-11T01:32:16.369Z,6.20
2023-01-11T01:32:26.307Z,5.30
2023-01-11T01:32:36.312Z,5.40
2023-01-11T01:32:46.292Z,5.40
2023-01-11T01:32:56.397Z,5.70
2023-01-11T01:33:06.309Z,5.50
2023-01-11T01:33:16.413Z,5.60
2023-01-11T01:33:26.400Z,6.10
2023-01-11T01:33:36.324Z,6.40
2023-01-11T01:33:46.296Z,6.50
2023-01-11T01:33:56.311Z,6.10
2023-01-11T01:34:06.298Z,6.00
2023-01-11T01:34:16.294Z,5.90
2023-01-11T01:34:26.300Z,5.90
2023-01-11T01:34:36.312Z,6.10
2023-01-11T01:34:46.289Z,6.40
2023-01-11T01:34:56.312Z,6.80
2023-01-11T01:35:06.288Z,6.80
2023-01-11T01:35:16.333Z,6.40
2023-01-11T01:35:26.316Z,5.90
2023-01-11T01:35:36.281Z,5.80
2023-01-11T01:35:46.285Z,5.70
2023-01-11T01:35:56.942Z,5.60
2023-01-11T01:36:06.356Z,5.80
2023-01-11T01:36:16.323Z,6.20
2023-01-11T01:36:26.317Z,6.20
2023-01-11T01:36:36.292Z,6.10
2023-01-11T01:36:46.288Z,5.80
2023-01-11T01:36:56.301Z,6.00
2023-01-11T01:37:06.287Z,5.70
2023-01-11T01:37:16.290Z,5.80
2023-01-11T01:37:26.316Z,5.60
2023-01-11T01:37:36.285Z,5.90
2023-01-11T01:37:46.313Z,5.70
2023-01-11T01:37:56.305Z,5.90
2023-01-11T01:38:06.482Z,5.80
2023-01-11T01:38:16.307Z,6.00
2023-01-11T01:38:26.312Z,6.00
2023-01-11T01:38:36.288Z,6.10
2023-01-11T01:38:46.306Z,5.70
2023-01-11T01:38:56.343Z,5.80
2023-01-11T01:39:06.271Z,5.70
2023-01-11T01:39:16.295Z,6.00
2023-01-11T01:39:26.278Z,5.70
2023-01-11T01:39:36.270Z,5.70
2023-01-11T01:39:46.290Z,5.70
2023-01-11T01:39:56.281Z,5.90
2023-01-11T01:40:06.283Z,5.60
2023-01-11T01:40:16.308Z,5.70
2023-01-11T01:40:26.280Z,5.90
2023-01-11T01:40:36.271Z,6.50
2023-01-11T01:40:46.289Z,6.30
2023-01-11T01:40:56.260Z,6.20
2023-01-11T01:41:06.269Z,6.10
2023-01-11T01:41:16.260Z,5.60
2023-01-11T01:41:26.265Z,5.40
2023-01-11T01:41:36.286Z,5.10
2023-01-11T01:41:46.277Z,5.70
2023-01-11T01:41:56.263Z,5.70
2023-01-11T01:42:06.266Z,6.00
2023-01-11T01:42:16.960Z,6.10
2023-01-11T01:42:26.263Z,6.10
2023-01-11T01:42:36.269Z,6.10
2023-01-11T01:42:46.266Z,5.50
2023-01-11T01:42:56.257Z,5.80
2023-01-11T01:43:06.324Z,6.00
2023-01-11T01:43:16.423Z,6.10
2023-01-11T01:43:26.254Z,5.60
2023-01-11T01:43:36.378Z,5.40
2023-01-11T01:43:47.682Z,5.80
2023-01-11T01:43:56.259Z,6.20
2023-01-11T01:44:06.382Z,5.70
2023-01-11T01:44:16.255Z,6.10
2023-01-11T01:44:26.259Z,5.80
2023-01-11T01:44:36.240Z,6.60
2023-01-11T01:44:46.298Z,6.10
2023-01-11T01:44:56.268Z,6.20
2023-01-11T01:45:06.243Z,5.40
2023-01-11T01:45:16.260Z,5.30
2023-01-11T01:45:26.991Z,5.40
2023-01-11T01:45:36.248Z,5.50
2023-01-11T01:45:46.243Z,5.40
2023-01-11T01:45:56.348Z,5.00
2023-01-11T01:46:06.300Z,5.40
2023-01-11T01:46:16.327Z,5.40
2023-01-11T01:46:26.315Z,5.70
2023-01-11T01:46:36.260Z,6.20
2023-01-11T01:46:46.261Z,6.10
2023-01-11T01:46:56.249Z,6.20
2023-01-11T01:47:06.236Z,6.00
2023-01-11T01:47:16.283Z,6.50
2023-01-11T01:47:26.941Z,6.50
2023-01-11T01:47:36.241Z,6.00
2023-01-11T01:47:46.971Z,5.70
2023-01-11T01:47:56.237Z,5.60
2023-01-11T01:48:06.244Z,6.20
2023-01-11T01:48:16.267Z,7.00
2023-01-11T01:48:26.335Z,6.70
2023-01-11T01:48:36.233Z,6.50
2023-01-11T01:48:46.235Z,6.40
2023-01-11T01:48:56.232Z,6.80
2023-01-11T01:49:06.231Z,7.00
2023-01-11T01:49:16.296Z,6.50
2023-01-11T01:49:26.228Z,6.10
2023-01-11T01:49:36.246Z,6.50
2023-01-11T01:49:46.255Z,6.10
2023-01-11T01:49:56.221Z,6.60
2023-01-11T01:50:06.968Z,5.70
2023-01-11T01:50:16.221Z,5.90
2023-01-11T01:50:26.218Z,5.40
2023-01-11T01:50:36.245Z,5.40
2023-01-11T01:50:46.217Z,5.60
2023-01-11T01:50:56.221Z,5.80
2023-01-11T01:51:06.232Z,6.50
2023-01-11T01:51:16.213Z,6.40
2023-01-11T01:51:26.228Z,6.10
2023-01-11T01:51:36.247Z,5.80
2023-01-11T01:51:46.221Z,5.90
2023-01-11T01:51:56.239Z,6.00
2023-01-11T01:52:06.231Z,6.00
2023-01-11T01:52:16.207Z,6.20
2023-01-11T01:52:26.227Z,6.50
2023-01-11T01:52:36.223Z,6.50
2023-01-11T01:52:46.938Z,6.40
2023-01-11T01:52:56.229Z,6.30
2023-01-11T01:53:06.207Z,5.70
2023-01-11T01:53:16.215Z,5.90
2023-01-11T01:53:26.229Z,5.70
2023-01-11T01:53:36.280Z,6.20
2023-01-11T01:53:46.223Z,6.50
2023-01-11T01:53:56.251Z,7.00
2023-01-11T01:54:06.210Z,7.80
2023-01-11T01:54:16.244Z,7.40
2023-01-11T01:54:26.215Z,6.80
2023-01-11T01:54:36.198Z,5.80
2023-01-11T01:54:46.208Z,6.10
2023-01-11T01:54:56.224Z,6.10
2023-01-11T01:55:06.198Z,6.30
2023-01-11T01:55:16.203Z,6.00
2023-01-11T01:55:26.220Z,5.80
2023-01-11T01:55:36.211Z,5.20
2023-01-11T01:55:46.208Z,4.80
2023-01-11T01:55:56.209Z,4.90
2023-01-11T01:56:06.201Z,5.90
2023-01-11T01:56:16.222Z,6.20
2023-01-11T01:56:26.237Z,6.70
2023-01-11T01:56:36.205Z,5.90
2023-01-11T01:56:46.214Z,5.90
2023-01-11T01:56:56.214Z,5.80
2023-01-11T01:57:06.272Z,6.40
2023-01-11T01:57:16.204Z,6.80
2023-01-11T01:57:26.203Z,6.30
2023-01-11T01:57:36.205Z,5.80
2023-01-11T01:57:46.248Z,5.40
2023-01-11T01:57:56.205Z,6.20
2023-01-11T01:58:06.200Z,6.20
2023-01-11T01:58:16.222Z,6.60
2023-01-11T01:58:26.202Z,5.90
2023-01-11T01:58:36.205Z,6.00
2023-01-11T01:58:46.231Z,5.40
2023-01-11T01:58:56.181Z,5.40
2023-01-11T01:59:06.200Z,5.00
2023-01-11T01:59:16.235Z,5.20
2023-01-11T01:59:33.071Z,5.20
2023-01-11T01:59:36.307Z,5.80
2023-01-11T01:59:46.190Z,5.70
2023-01-11T01:59:56.185Z,5.80
2023-01-11T02:00:06.208Z,5.20
2023-01-11T02:00:16.175Z,5.80
2023-01-11T02:00:26.989Z,5.60
2023-01-11T02:00:36.225Z,6.00
2023-01-11T02:00:46.200Z,5.60
2023-01-11T02:00:56.217Z,5.30
2023-01-11T02:01:06.209Z,5.40
2023-01-11T02:01:16.350Z,6.10
2023-01-11T02:01:26.974Z,6.50
2023-01-11T02:01:36.227Z,6.60
2023-01-11T02:01:46.249Z,5.90
2023-01-11T02:01:56.219Z,6.10
2023-01-11T02:02:06.187Z,6.00
2023-01-11T02:02:16.261Z,6.60
2023-01-11T02:02:26.254Z,6.40
2023-01-11T02:02:36.268Z,6.50
2023-01-11T02:02:46.241Z,6.30
2023-01-11T02:02:56.296Z,6.20
2023-01-11T02:03:06.243Z,5.90
2023-01-11T02:03:16.174Z,5.80
2023-01-11T02:03:26.193Z,5.90
2023-01-11T02:03:36.162Z,6.00
2023-01-11T02:03:46.161Z,6.00
2023-01-11T02:03:56.295Z,5.80
2023-01-11T02:04:06.159Z,6.10
2023-01-11T02:04:16.162Z,6.20
2023-01-11T02:04:26.196Z,6.00
2023-01-11T02:04:36.194Z,5.70
2023-01-11T02:04:46.180Z,6.50
2023-01-11T02:04:56.171Z,6.60
2023-01-11T02:05:06.155Z,6.50
2023-01-11T02:05:16.961Z,5.70
2023-01-11T02:05:26.215Z,5.90
2023-01-11T02:05:36.157Z,6.10
2023-01-11T02:05:46.174Z,6.10
2023-01-11T02:05:56.154Z,5.80
2023-01-11T02:06:06.150Z,5.90
2023-01-11T02:06:16.183Z,6.00
2023-01-11T02:06:26.256Z,6.00
2023-01-11T02:06:36.236Z,5.80
2023-01-11T02:06:47.072Z,5.70
2023-01-11T02:06:56.187Z,6.50
2023-01-11T02:07:07.088Z,6.40
2023-01-11T02:07:16.298Z,6.70
2023-01-11T02:07:26.148Z,6.60
2023-01-11T02:07:36.150Z,6.70
2023-01-11T02:07:46.321Z,6.50
2023-01-11T02:07:56.168Z,6.40
2023-01-11T02:08:06.179Z,6.60
2023-01-11T02:08:16.205Z,7.00
2023-01-11T02:08:26.157Z,7.40
2023-01-11T02:08:36.156Z,7.70
2023-01-11T02:08:46.145Z,7.20
2023-01-11T02:08:56.144Z,6.90
2023-01-11T02:09:06.235Z,6.40
2023-01-11T02:09:16.154Z,6.50
2023-01-11T02:09:26.233Z,6.40
2023-01-11T02:09:36.193Z,7.00
2023-01-11T02:09:46.132Z,6.70
2023-01-11T02:09:56.132Z,6.60
2023-01-11T02:10:06.146Z,6.40
2023-01-11T02:10:16.136Z,6.60
2023-01-11T02:10:26.137Z,6.30
2023-01-11T02:10:36.143Z,6.00
2023-01-11T02:10:46.147Z,6.30
2023-01-11T02:10:56.152Z,6.30
2023-01-11T02:11:06.209Z,6.20
2023-01-11T02:11:16.227Z,5.70
2023-01-11T02:11:26.948Z,5.60
2023-01-11T02:11:36.140Z,6.00
2023-01-11T02:11:46.227Z,6.60
2023-01-11T02:11:56.126Z,6.80
2023-01-11T02:12:06.143Z,6.30
2023-01-11T02:12:16.120Z,6.10
2023-01-11T02:12:27.731Z,6.30
2023-01-11T02:12:36.949Z,7.20
2023-01-11T02:12:46.122Z,7.90
2023-01-11T02:12:56.165Z,7.90
2023-01-11T02:13:06.118Z,7.60